Ashaway, Rhode Island
Current Conditions -  °F | °C
As of 7:53 PM on Wednesday 26 Nov 2014 (Local Time) from KWST Reporting Station
Light Rain Light Rain  
Wind Chill: -2°   Ceiling: 1000
Heat Index:   Visibility: 6mi
Dew Point:   Wind: 15mph
Humidity: 93%   Direction: 360°N
Pressure: 29.64"   Gusts: 25mph
Location:  41.43°N, 71.79°W
Report Text: KWST 270053Z AUTO 36013G22KT 6SM -RA BR OVC010 03/02 A2964 RMK AO2 CIG 008V013 SLP039 P0000 T00330022
Loading
Personal Weather Stations






























Interactive Weather Map New forecast layout! Learn more

10-Day Weather Forecast

Advertisements
Track Severe Weather on mobile